sensor_id;sensor_type;location;lat;lon;timestamp;P1;durP1;ratioP1;P2;durP2;ratioP2
42030;SDS011;27709;52.036;5.906;2022-12-15T00:01:55;28.92;;;13.07;;
42030;SDS011;27709;52.036;5.906;2022-12-15T00:04:39;22.60;;;12.50;;
42030;SDS011;27709;52.036;5.906;2022-12-15T00:07:23;27.67;;;12.60;;
42030;SDS011;27709;52.036;5.906;2022-12-15T00:10:07;26.25;;;13.20;;
42030;SDS011;27709;52.036;5.906;2022-12-15T00:12:51;29.23;;;13.85;;
42030;SDS011;27709;52.036;5.906;2022-12-15T00:15:35;28.25;;;13.40;;
42030;SDS011;27709;52.036;5.906;2022-12-15T00:18:19;25.95;;;11.95;;
42030;SDS011;27709;52.036;5.906;2022-12-15T00:21:03;27.23;;;12.60;;
42030;SDS011;27709;52.036;5.906;2022-12-15T00:23:48;23.85;;;12.82;;
42030;SDS011;27709;52.036;5.906;2022-12-15T00:26:32;27.40;;;12.55;;
42030;SDS011;27709;52.036;5.906;2022-12-15T00:29:16;29.42;;;12.88;;
42030;SDS011;27709;52.036;5.906;2022-12-15T00:32:01;29.17;;;14.13;;
42030;SDS011;27709;52.036;5.906;2022-12-15T00:34:45;29.08;;;14.07;;
42030;SDS011;27709;52.036;5.906;2022-12-15T00:37:29;29.30;;;14.00;;
42030;SDS011;27709;52.036;5.906;2022-12-15T00:40:13;30.70;;;14.35;;
42030;SDS011;27709;52.036;5.906;2022-12-15T00:42:38;30.60;;;14.73;;
42030;SDS011;27709;52.036;5.906;2022-12-15T00:45:04;28.02;;;14.07;;
42030;SDS011;27709;52.036;5.906;2022-12-15T00:47:31;27.77;;;12.50;;
42030;SDS011;27709;52.036;5.906;2022-12-15T00:49:57;26.50;;;12.65;;
42030;SDS011;27709;52.036;5.906;2022-12-15T00:52:41;25.95;;;13.45;;
42030;SDS011;27709;52.036;5.906;2022-12-15T00:55:26;27.65;;;13.73;;
42030;SDS011;27709;52.036;5.906;2022-12-15T00:58:10;25.55;;;12.80;;
42030;SDS011;27709;52.036;5.906;2022-12-15T01:00:54;27.00;;;14.55;;
42030;SDS011;27709;52.036;5.906;2022-12-15T01:03:38;24.88;;;12.60;;
42030;SDS011;27709;52.036;5.906;2022-12-15T01:06:22;27.55;;;13.40;;
42030;SDS011;27709;52.036;5.906;2022-12-15T01:09:07;29.52;;;14.02;;
42030;SDS011;27709;52.036;5.906;2022-12-15T01:11:52;29.50;;;13.02;;
42030;SDS011;27709;52.036;5.906;2022-12-15T01:14:36;28.20;;;12.50;;
42030;SDS011;27709;52.036;5.906;2022-12-15T01:17:21;29.73;;;13.27;;
42030;SDS011;27709;52.036;5.906;2022-12-15T01:20:05;31.52;;;14.18;;
42030;SDS011;27709;52.036;5.906;2022-12-15T01:22:45;26.70;;;13.70;;
42030;SDS011;27709;52.036;5.906;2022-12-15T01:25:12;27.40;;;13.63;;
42030;SDS011;27709;52.036;5.906;2022-12-15T01:27:38;25.90;;;13.70;;
42030;SDS011;27709;52.036;5.906;2022-12-15T01:30:04;32.72;;;14.48;;
42030;SDS011;27709;52.036;5.906;2022-12-15T01:32:31;32.90;;;15.18;;
42030;SDS011;27709;52.036;5.906;2022-12-15T01:34:57;31.95;;;15.35;;
42030;SDS011;27709;52.036;5.906;2022-12-15T01:37:22;29.65;;;14.27;;
42030;SDS011;27709;52.036;5.906;2022-12-15T01:39:48;31.33;;;14.55;;
42030;SDS011;27709;52.036;5.906;2022-12-15T01:42:32;30.20;;;14.98;;
42030;SDS011;27709;52.036;5.906;2022-12-15T01:50:30;29.13;;;13.75;;
42030;SDS011;27709;52.036;5.906;2022-12-15T01:53:00;25.73;;;13.55;;
42030;SDS011;27709;52.036;5.906;2022-12-15T01:55:27;23.13;;;11.73;;
42030;SDS011;27709;52.036;5.906;2022-12-15T01:57:55;26.55;;;12.65;;
42030;SDS011;27709;52.036;5.906;2022-12-15T02:00:26;28.58;;;12.95;;
42030;SDS011;27709;52.036;5.906;2022-12-15T02:02:52;23.52;;;13.70;;
42030;SDS011;27709;52.036;5.906;2022-12-15T02:05:18;28.73;;;14.00;;
42030;SDS011;27709;52.036;5.906;2022-12-15T02:07:44;31.27;;;14.82;;
42030;SDS011;27709;52.036;5.906;2022-12-15T02:10:10;30.33;;;14.32;;
42030;SDS011;27709;52.036;5.906;2022-12-15T02:17:58;29.13;;;13.75;;
42030;SDS011;27709;52.036;5.906;2022-12-15T02:21:00;26.95;;;13.90;;
42030;SDS011;27709;52.036;5.906;2022-12-15T02:32:24;28.23;;;14.13;;
42030;SDS011;27709;52.036;5.906;2022-12-15T02:34:53;27.15;;;14.73;;
42030;SDS011;27709;52.036;5.906;2022-12-15T02:37:27;31.00;;;13.90;;
42030;SDS011;27709;52.036;5.906;2022-12-15T02:39:55;30.17;;;15.07;;
42030;SDS011;27709;52.036;5.906;2022-12-15T02:42:20;28.75;;;13.90;;
42030;SDS011;27709;52.036;5.906;2022-12-15T02:44:58;28.42;;;14.20;;
42030;SDS011;27709;52.036;5.906;2022-12-15T02:47:36;26.87;;;13.00;;
42030;SDS011;27709;52.036;5.906;2022-12-15T02:50:19;29.27;;;14.52;;
42030;SDS011;27709;52.036;5.906;2022-12-15T02:53:22;28.13;;;13.63;;
42030;SDS011;27709;52.036;5.906;2022-12-15T03:04:19;27.42;;;13.73;;
42030;SDS011;27709;52.036;5.906;2022-12-15T03:06:52;29.40;;;14.20;;
42030;SDS011;27709;52.036;5.906;2022-12-15T03:09:21;26.33;;;13.65;;
42030;SDS011;27709;52.036;5.906;2022-12-15T03:11:46;31.17;;;14.57;;
42030;SDS011;27709;52.036;5.906;2022-12-15T03:14:12;29.42;;;14.00;;
42030;SDS011;27709;52.036;5.906;2022-12-15T03:16:37;28.17;;;14.38;;
42030;SDS011;27709;52.036;5.906;2022-12-15T03:19:03;28.27;;;13.88;;
42030;SDS011;27709;52.036;5.906;2022-12-15T03:21:28;30.02;;;15.68;;
42030;SDS011;27709;52.036;5.906;2022-12-15T03:23:54;29.02;;;14.88;;
42030;SDS011;27709;52.036;5.906;2022-12-15T03:26:19;28.60;;;14.20;;
42030;SDS011;27709;52.036;5.906;2022-12-15T03:28:45;26.30;;;13.80;;
42030;SDS011;27709;52.036;5.906;2022-12-15T03:31:11;27.55;;;14.00;;
42030;SDS011;27709;52.036;5.906;2022-12-15T03:33:36;28.13;;;14.40;;
42030;SDS011;27709;52.036;5.906;2022-12-15T03:36:02;26.30;;;14.05;;
42030;SDS011;27709;52.036;5.906;2022-12-15T03:38:30;34.05;;;15.45;;
42030;SDS011;27709;52.036;5.906;2022-12-15T03:40:55;33.63;;;15.30;;
42030;SDS011;27709;52.036;5.906;2022-12-15T03:43:22;33.45;;;15.63;;
42030;SDS011;27709;52.036;5.906;2022-12-15T03:45:47;28.00;;;14.95;;
42030;SDS011;27709;52.036;5.906;2022-12-15T03:48:13;28.48;;;14.02;;
42030;SDS011;27709;52.036;5.906;2022-12-15T03:50:38;32.78;;;14.88;;
42030;SDS011;27709;52.036;5.906;2022-12-15T03:53:05;30.60;;;14.82;;
42030;SDS011;27709;52.036;5.906;2022-12-15T03:55:30;28.83;;;14.48;;
42030;SDS011;27709;52.036;5.906;2022-12-15T03:57:56;30.98;;;14.43;;
42030;SDS011;27709;52.036;5.906;2022-12-15T04:00:23;29.10;;;14.18;;
42030;SDS011;27709;52.036;5.906;2022-12-15T04:02:49;27.02;;;12.98;;
42030;SDS011;27709;52.036;5.906;2022-12-15T04:05:20;26.63;;;14.13;;
42030;SDS011;27709;52.036;5.906;2022-12-15T04:07:54;32.45;;;14.68;;
42030;SDS011;27709;52.036;5.906;2022-12-15T04:10:21;31.95;;;14.93;;
42030;SDS011;27709;52.036;5.906;2022-12-15T04:12:49;31.75;;;15.75;;
42030;SDS011;27709;52.036;5.906;2022-12-15T04:15:24;28.80;;;14.38;;
42030;SDS011;27709;52.036;5.906;2022-12-15T04:17:50;31.13;;;14.35;;
42030;SDS011;27709;52.036;5.906;2022-12-15T04:20:16;29.63;;;13.90;;
42030;SDS011;27709;52.036;5.906;2022-12-15T04:22:42;27.30;;;14.23;;
42030;SDS011;27709;52.036;5.906;2022-12-15T04:25:10;29.23;;;13.43;;
42030;SDS011;27709;52.036;5.906;2022-12-15T04:27:58;26.55;;;12.70;;
42030;SDS011;27709;52.036;5.906;2022-12-15T04:30:47;29.02;;;13.27;;
42030;SDS011;27709;52.036;5.906;2022-12-15T04:33:35;28.25;;;13.10;;
42030;SDS011;27709;52.036;5.906;2022-12-15T04:36:21;28.75;;;13.95;;
42030;SDS011;27709;52.036;5.906;2022-12-15T04:39:05;29.30;;;14.23;;
42030;SDS011;27709;52.036;5.906;2022-12-15T04:41:50;28.55;;;13.50;;
42030;SDS011;27709;52.036;5.906;2022-12-15T04:44:35;26.58;;;12.90;;
42030;SDS011;27709;52.036;5.906;2022-12-15T04:47:19;28.02;;;14.00;;
42030;SDS011;27709;52.036;5.906;2022-12-15T04:50:03;27.20;;;13.73;;
42030;SDS011;27709;52.036;5.906;2022-12-15T04:52:48;26.00;;;12.60;;
42030;SDS011;27709;52.036;5.906;2022-12-15T04:55:36;25.45;;;13.00;;
42030;SDS011;27709;52.036;5.906;2022-12-15T04:58:20;27.38;;;12.38;;
42030;SDS011;27709;52.036;5.906;2022-12-15T05:01:04;34.22;;;13.85;;
42030;SDS011;27709;52.036;5.906;2022-12-15T05:03:49;30.08;;;14.05;;
42030;SDS011;27709;52.036;5.906;2022-12-15T05:06:33;33.72;;;15.00;;
42030;SDS011;27709;52.036;5.906;2022-12-15T05:09:17;27.13;;;13.68;;
42030;SDS011;27709;52.036;5.906;2022-12-15T05:12:01;32.55;;;14.57;;
42030;SDS011;27709;52.036;5.906;2022-12-15T05:14:45;27.40;;;13.65;;
42030;SDS011;27709;52.036;5.906;2022-12-15T05:17:29;30.45;;;13.82;;
42030;SDS011;27709;52.036;5.906;2022-12-15T05:20:13;26.60;;;13.85;;
42030;SDS011;27709;52.036;5.906;2022-12-15T05:22:57;30.20;;;14.30;;
42030;SDS011;27709;52.036;5.906;2022-12-15T05:25:42;30.48;;;14.45;;
42030;SDS011;27709;52.036;5.906;2022-12-15T05:28:26;27.33;;;13.90;;
42030;SDS011;27709;52.036;5.906;2022-12-15T05:31:10;29.27;;;15.27;;
42030;SDS011;27709;52.036;5.906;2022-12-15T05:33:55;31.77;;;14.52;;
42030;SDS011;27709;52.036;5.906;2022-12-15T05:36:22;27.17;;;13.85;;
42030;SDS011;27709;52.036;5.906;2022-12-15T05:38:48;28.00;;;14.13;;
42030;SDS011;27709;52.036;5.906;2022-12-15T05:41:14;33.17;;;15.00;;
42030;SDS011;27709;52.036;5.906;2022-12-15T05:43:39;28.60;;;13.90;;
42030;SDS011;27709;52.036;5.906;2022-12-15T05:46:05;29.25;;;14.07;;
42030;SDS011;27709;52.036;5.906;2022-12-15T05:48:32;28.08;;;13.48;;
42030;SDS011;27709;52.036;5.906;2022-12-15T05:51:07;28.17;;;13.80;;
42030;SDS011;27709;52.036;5.906;2022-12-15T05:53:35;30.95;;;14.98;;
42030;SDS011;27709;52.036;5.906;2022-12-15T05:56:06;30.75;;;14.10;;
42030;SDS011;27709;52.036;5.906;2022-12-15T05:58:33;29.40;;;14.27;;
42030;SDS011;27709;52.036;5.906;2022-12-15T06:01:12;27.20;;;14.65;;
42030;SDS011;27709;52.036;5.906;2022-12-15T06:03:40;30.00;;;14.75;;
42030;SDS011;27709;52.036;5.906;2022-12-15T06:06:07;34.90;;;14.73;;
42030;SDS011;27709;52.036;5.906;2022-12-15T06:08:34;34.05;;;14.15;;
42030;SDS011;27709;52.036;5.906;2022-12-15T06:11:02;33.97;;;14.50;;
42030;SDS011;27709;52.036;5.906;2022-12-15T06:13:28;31.67;;;14.20;;
42030;SDS011;27709;52.036;5.906;2022-12-15T06:16:01;25.98;;;13.98;;
42030;SDS011;27709;52.036;5.906;2022-12-15T06:18:34;31.02;;;14.95;;
42030;SDS011;27709;52.036;5.906;2022-12-15T06:21:07;28.05;;;13.38;;
42030;SDS011;27709;52.036;5.906;2022-12-15T06:23:35;31.92;;;14.45;;
42030;SDS011;27709;52.036;5.906;2022-12-15T06:26:14;35.53;;;15.75;;
42030;SDS011;27709;52.036;5.906;2022-12-15T06:28:42;33.30;;;14.35;;
42030;SDS011;27709;52.036;5.906;2022-12-15T06:31:08;31.38;;;14.82;;
42030;SDS011;27709;52.036;5.906;2022-12-15T06:33:35;32.15;;;14.68;;
42030;SDS011;27709;52.036;5.906;2022-12-15T06:39:05;28.85;;;13.90;;
42030;SDS011;27709;52.036;5.906;2022-12-15T06:41:36;29.58;;;14.57;;
42030;SDS011;27709;52.036;5.906;2022-12-15T06:44:05;27.63;;;14.02;;
42030;SDS011;27709;52.036;5.906;2022-12-15T06:46:32;32.67;;;15.00;;
42030;SDS011;27709;52.036;5.906;2022-12-15T06:49:01;30.48;;;14.20;;
42030;SDS011;27709;52.036;5.906;2022-12-15T06:54:55;28.80;;;13.93;;
42030;SDS011;27709;52.036;5.906;2022-12-15T07:00:26;31.65;;;13.05;;
42030;SDS011;27709;52.036;5.906;2022-12-15T07:03:02;27.58;;;12.80;;
42030;SDS011;27709;52.036;5.906;2022-12-15T07:05:31;26.95;;;13.05;;
42030;SDS011;27709;52.036;5.906;2022-12-15T07:07:58;29.25;;;13.55;;
42030;SDS011;27709;52.036;5.906;2022-12-15T07:10:24;28.35;;;12.93;;
42030;SDS011;27709;52.036;5.906;2022-12-15T07:12:49;29.77;;;13.63;;
42030;SDS011;27709;52.036;5.906;2022-12-15T07:15:21;27.58;;;14.13;;
42030;SDS011;27709;52.036;5.906;2022-12-15T07:17:56;25.38;;;12.80;;
42030;SDS011;27709;52.036;5.906;2022-12-15T07:20:21;27.40;;;13.00;;
42030;SDS011;27709;52.036;5.906;2022-12-15T07:22:50;30.05;;;13.95;;
42030;SDS011;27709;52.036;5.906;2022-12-15T07:25:16;30.92;;;14.35;;
42030;SDS011;27709;52.036;5.906;2022-12-15T07:27:53;30.80;;;14.00;;
42030;SDS011;27709;52.036;5.906;2022-12-15T07:30:36;29.65;;;13.80;;
42030;SDS011;27709;52.036;5.906;2022-12-15T07:36:00;29.25;;;14.30;;
42030;SDS011;27709;52.036;5.906;2022-12-15T07:38:27;27.63;;;13.88;;
42030;SDS011;27709;52.036;5.906;2022-12-15T07:41:00;26.73;;;12.93;;
42030;SDS011;27709;52.036;5.906;2022-12-15T07:43:29;29.42;;;15.90;;
42030;SDS011;27709;52.036;5.906;2022-12-15T07:45:55;32.85;;;15.10;;
42030;SDS011;27709;52.036;5.906;2022-12-15T07:48:20;26.23;;;14.25;;
42030;SDS011;27709;52.036;5.906;2022-12-15T07:50:47;32.95;;;15.10;;
42030;SDS011;27709;52.036;5.906;2022-12-15T07:53:14;29.67;;;13.73;;
42030;SDS011;27709;52.036;5.906;2022-12-15T07:55:40;33.40;;;14.23;;
42030;SDS011;27709;52.036;5.906;2022-12-15T07:58:05;34.88;;;14.15;;
42030;SDS011;27709;52.036;5.906;2022-12-15T08:00:31;28.05;;;13.13;;
42030;SDS011;27709;52.036;5.906;2022-12-15T08:02:56;27.83;;;14.32;;
42030;SDS011;27709;52.036;5.906;2022-12-15T08:05:24;28.92;;;14.50;;
42030;SDS011;27709;52.036;5.906;2022-12-15T08:07:50;28.70;;;14.27;;
42030;SDS011;27709;52.036;5.906;2022-12-15T08:10:16;26.15;;;13.32;;
42030;SDS011;27709;52.036;5.906;2022-12-15T08:12:41;30.52;;;14.55;;
42030;SDS011;27709;52.036;5.906;2022-12-15T08:15:07;31.77;;;15.27;;
42030;SDS011;27709;52.036;5.906;2022-12-15T08:17:33;31.40;;;14.52;;
42030;SDS011;27709;52.036;5.906;2022-12-15T08:19:59;28.00;;;14.90;;
42030;SDS011;27709;52.036;5.906;2022-12-15T08:22:24;28.33;;;13.88;;
42030;SDS011;27709;52.036;5.906;2022-12-15T08:24:50;28.92;;;14.57;;
42030;SDS011;27709;52.036;5.906;2022-12-15T08:27:15;31.42;;;14.50;;
42030;SDS011;27709;52.036;5.906;2022-12-15T08:29:41;32.78;;;15.80;;
42030;SDS011;27709;52.036;5.906;2022-12-15T08:32:06;27.92;;;14.75;;
42030;SDS011;27709;52.036;5.906;2022-12-15T08:34:32;30.92;;;14.88;;
42030;SDS011;27709;52.036;5.906;2022-12-15T08:36:57;31.92;;;14.18;;
42030;SDS011;27709;52.036;5.906;2022-12-15T08:39:23;31.30;;;15.30;;
42030;SDS011;27709;52.036;5.906;2022-12-15T08:41:48;28.63;;;15.05;;
42030;SDS011;27709;52.036;5.906;2022-12-15T08:44:15;32.13;;;16.00;;
42030;SDS011;27709;52.036;5.906;2022-12-15T08:46:41;33.63;;;16.63;;
42030;SDS011;27709;52.036;5.906;2022-12-15T08:49:07;39.83;;;18.17;;
42030;SDS011;27709;52.036;5.906;2022-12-15T08:51:33;33.97;;;15.70;;
42030;SDS011;27709;52.036;5.906;2022-12-15T08:53:59;29.67;;;15.20;;
42030;SDS011;27709;52.036;5.906;2022-12-15T08:56:25;34.03;;;16.02;;
42030;SDS011;27709;52.036;5.906;2022-12-15T08:58:56;37.05;;;17.92;;
42030;SDS011;27709;52.036;5.906;2022-12-15T09:01:23;33.13;;;15.93;;
42030;SDS011;27709;52.036;5.906;2022-12-15T09:03:51;32.67;;;16.20;;
42030;SDS011;27709;52.036;5.906;2022-12-15T09:06:18;28.65;;;15.93;;
42030;SDS011;27709;52.036;5.906;2022-12-15T09:08:46;32.03;;;16.27;;
42030;SDS011;27709;52.036;5.906;2022-12-15T09:11:12;32.55;;;16.15;;
42030;SDS011;27709;52.036;5.906;2022-12-15T09:13:38;31.77;;;17.35;;
42030;SDS011;27709;52.036;5.906;2022-12-15T09:16:05;34.28;;;17.92;;
42030;SDS011;27709;52.036;5.906;2022-12-15T09:18:37;33.10;;;16.75;;
42030;SDS011;27709;52.036;5.906;2022-12-15T09:21:05;39.05;;;18.92;;
42030;SDS011;27709;52.036;5.906;2022-12-15T09:23:31;41.17;;;21.58;;
42030;SDS011;27709;52.036;5.906;2022-12-15T09:26:02;39.20;;;20.70;;
42030;SDS011;27709;52.036;5.906;2022-12-15T09:28:33;39.42;;;20.85;;
42030;SDS011;27709;52.036;5.906;2022-12-15T09:31:05;41.75;;;20.52;;
42030;SDS011;27709;52.036;5.906;2022-12-15T09:33:33;40.25;;;20.27;;
42030;SDS011;27709;52.036;5.906;2022-12-15T09:35:59;39.70;;;21.30;;
42030;SDS011;27709;52.036;5.906;2022-12-15T09:38:25;44.45;;;23.30;;
42030;SDS011;27709;52.036;5.906;2022-12-15T09:40:50;42.92;;;22.58;;
42030;SDS011;27709;52.036;5.906;2022-12-15T09:43:21;46.13;;;25.10;;
42030;SDS011;27709;52.036;5.906;2022-12-15T09:45:56;47.30;;;24.20;;
42030;SDS011;27709;52.036;5.906;2022-12-15T09:48:32;42.65;;;23.65;;
42030;SDS011;27709;52.036;5.906;2022-12-15T09:51:03;46.67;;;24.30;;
42030;SDS011;27709;52.036;5.906;2022-12-15T09:53:34;45.30;;;25.52;;
42030;SDS011;27709;52.036;5.906;2022-12-15T09:56:02;42.53;;;24.80;;
42030;SDS011;27709;52.036;5.906;2022-12-15T09:58:38;51.22;;;26.52;;
42030;SDS011;27709;52.036;5.906;2022-12-15T10:06:39;46.30;;;24.98;;
42030;SDS011;27709;52.036;5.906;2022-12-15T10:09:18;47.38;;;25.05;;
42030;SDS011;27709;52.036;5.906;2022-12-15T10:14:43;41.38;;;23.60;;
42030;SDS011;27709;52.036;5.906;2022-12-15T10:17:24;42.50;;;24.17;;
42030;SDS011;27709;52.036;5.906;2022-12-15T10:20:04;47.08;;;25.38;;
42030;SDS011;27709;52.036;5.906;2022-12-15T10:22:50;40.83;;;23.20;;
42030;SDS011;27709;52.036;5.906;2022-12-15T10:25:20;42.60;;;24.15;;
42030;SDS011;27709;52.036;5.906;2022-12-15T10:28:40;41.67;;;23.75;;
42030;SDS011;27709;52.036;5.906;2022-12-15T10:30:48;41.00;;;23.02;;
42030;SDS011;27709;52.036;5.906;2022-12-15T10:33:19;39.30;;;22.77;;
42030;SDS011;27709;52.036;5.906;2022-12-15T10:35:53;39.00;;;23.52;;
42030;SDS011;27709;52.036;5.906;2022-12-15T10:38:24;39.25;;;22.08;;
42030;SDS011;27709;52.036;5.906;2022-12-15T10:41:02;38.65;;;22.35;;
42030;SDS011;27709;52.036;5.906;2022-12-15T10:43:34;40.78;;;22.80;;
42030;SDS011;27709;52.036;5.906;2022-12-15T10:48:38;36.65;;;21.00;;
42030;SDS011;27709;52.036;5.906;2022-12-15T10:56:34;37.05;;;21.77;;
42030;SDS011;27709;52.036;5.906;2022-12-15T11:07:46;39.88;;;22.83;;
42030;SDS011;27709;52.036;5.906;2022-12-15T11:10:31;35.22;;;20.27;;
42030;SDS011;27709;52.036;5.906;2022-12-15T11:13:18;34.55;;;20.60;;
42030;SDS011;27709;52.036;5.906;2022-12-15T11:18:42;33.78;;;21.05;;
42030;SDS011;27709;52.036;5.906;2022-12-15T11:21:07;37.97;;;23.13;;
42030;SDS011;27709;52.036;5.906;2022-12-15T11:26:12;35.05;;;20.55;;
42030;SDS011;27709;52.036;5.906;2022-12-15T11:31:49;33.85;;;20.25;;
42030;SDS011;27709;52.036;5.906;2022-12-15T11:34:17;33.30;;;20.30;;
42030;SDS011;27709;52.036;5.906;2022-12-15T11:36:52;35.85;;;20.45;;
42030;SDS011;27709;52.036;5.906;2022-12-15T11:39:53;27.92;;;18.98;;
42030;SDS011;27709;52.036;5.906;2022-12-15T11:45:08;31.60;;;19.88;;
42030;SDS011;27709;52.036;5.906;2022-12-15T12:01:52;32.20;;;20.23;;
42030;SDS011;27709;52.036;5.906;2022-12-15T12:04:45;36.67;;;21.45;;
42030;SDS011;27709;52.036;5.906;2022-12-15T12:18:29;33.78;;;20.50;;
42030;SDS011;27709;52.036;5.906;2022-12-15T12:26:34;35.47;;;21.85;;
42030;SDS011;27709;52.036;5.906;2022-12-15T12:34:21;35.55;;;21.90;;
42030;SDS011;27709;52.036;5.906;2022-12-15T12:39:45;35.08;;;20.55;;
42030;SDS011;27709;52.036;5.906;2022-12-15T12:42:17;36.70;;;21.92;;
42030;SDS011;27709;52.036;5.906;2022-12-15T12:44:54;37.95;;;22.25;;
42030;SDS011;27709;52.036;5.906;2022-12-15T12:47:22;39.85;;;22.60;;
42030;SDS011;27709;52.036;5.906;2022-12-15T12:50:02;33.40;;;21.63;;
42030;SDS011;27709;52.036;5.906;2022-12-15T12:52:32;34.28;;;22.08;;
42030;SDS011;27709;52.036;5.906;2022-12-15T12:55:02;33.03;;;20.45;;
42030;SDS011;27709;52.036;5.906;2022-12-15T12:57:45;32.92;;;19.38;;
42030;SDS011;27709;52.036;5.906;2022-12-15T13:00:19;34.47;;;20.83;;
42030;SDS011;27709;52.036;5.906;2022-12-15T13:10:30;35.13;;;21.33;;
42030;SDS011;27709;52.036;5.906;2022-12-15T13:13:50;34.30;;;20.42;;
42030;SDS011;27709;52.036;5.906;2022-12-15T13:26:46;36.08;;;22.52;;
42030;SDS011;27709;52.036;5.906;2022-12-15T13:29:12;37.03;;;22.90;;
42030;SDS011;27709;52.036;5.906;2022-12-15T13:31:44;34.05;;;20.33;;
42030;SDS011;27709;52.036;5.906;2022-12-15T13:34:13;35.47;;;21.77;;
42030;SDS011;27709;52.036;5.906;2022-12-15T13:36:44;33.63;;;20.90;;
42030;SDS011;27709;52.036;5.906;2022-12-15T13:46:51;35.83;;;22.83;;
42030;SDS011;27709;52.036;5.906;2022-12-15T13:51:59;38.38;;;22.67;;
42030;SDS011;27709;52.036;5.906;2022-12-15T13:54:32;33.88;;;21.75;;
42030;SDS011;27709;52.036;5.906;2022-12-15T13:57:01;34.55;;;20.40;;
42030;SDS011;27709;52.036;5.906;2022-12-15T13:59:46;38.65;;;22.65;;
42030;SDS011;27709;52.036;5.906;2022-12-15T14:05:05;40.10;;;22.92;;
42030;SDS011;27709;52.036;5.906;2022-12-15T14:07:46;33.33;;;21.63;;
42030;SDS011;27709;52.036;5.906;2022-12-15T14:15:41;36.83;;;22.10;;
42030;SDS011;27709;52.036;5.906;2022-12-15T14:18:20;38.92;;;22.67;;
42030;SDS011;27709;52.036;5.906;2022-12-15T14:20:48;40.63;;;22.70;;
42030;SDS011;27709;52.036;5.906;2022-12-15T14:23:21;35.53;;;21.75;;
42030;SDS011;27709;52.036;5.906;2022-12-15T14:26:00;35.97;;;21.52;;
42030;SDS011;27709;52.036;5.906;2022-12-15T14:28:32;33.45;;;20.65;;
42030;SDS011;27709;52.036;5.906;2022-12-15T14:31:06;34.05;;;20.08;;
42030;SDS011;27709;52.036;5.906;2022-12-15T14:33:39;35.70;;;21.25;;
42030;SDS011;27709;52.036;5.906;2022-12-15T14:36:07;31.73;;;19.88;;
42030;SDS011;27709;52.036;5.906;2022-12-15T14:41:28;34.53;;;20.60;;
42030;SDS011;27709;52.036;5.906;2022-12-15T14:43:55;36.13;;;22.70;;
42030;SDS011;27709;52.036;5.906;2022-12-15T14:46:25;35.15;;;21.98;;
42030;SDS011;27709;52.036;5.906;2022-12-15T14:49:03;37.72;;;21.60;;
42030;SDS011;27709;52.036;5.906;2022-12-15T14:51:36;37.60;;;21.88;;
42030;SDS011;27709;52.036;5.906;2022-12-15T14:54:23;36.33;;;21.73;;
42030;SDS011;27709;52.036;5.906;2022-12-15T14:57:11;35.47;;;21.98;;
42030;SDS011;27709;52.036;5.906;2022-12-15T15:00:14;35.60;;;21.63;;
42030;SDS011;27709;52.036;5.906;2022-12-15T15:06:05;36.80;;;21.00;;
42030;SDS011;27709;52.036;5.906;2022-12-15T15:08:45;39.10;;;22.17;;
42030;SDS011;27709;52.036;5.906;2022-12-15T15:13:42;40.80;;;23.48;;
42030;SDS011;27709;52.036;5.906;2022-12-15T15:16:13;35.88;;;22.50;;
42030;SDS011;27709;52.036;5.906;2022-12-15T15:18:41;39.78;;;23.00;;
42030;SDS011;27709;52.036;5.906;2022-12-15T15:21:11;42.28;;;25.05;;
42030;SDS011;27709;52.036;5.906;2022-12-15T15:23:59;38.75;;;22.92;;
42030;SDS011;27709;52.036;5.906;2022-12-15T15:26:46;36.63;;;21.75;;
42030;SDS011;27709;52.036;5.906;2022-12-15T15:29:59;35.97;;;22.38;;
42030;SDS011;27709;52.036;5.906;2022-12-15T15:32:16;37.45;;;21.35;;
42030;SDS011;27709;52.036;5.906;2022-12-15T15:34:46;39.78;;;22.33;;
42030;SDS011;27709;52.036;5.906;2022-12-15T15:37:45;38.63;;;22.10;;
42030;SDS011;27709;52.036;5.906;2022-12-15T15:40:05;40.97;;;23.25;;
42030;SDS011;27709;52.036;5.906;2022-12-15T15:42:37;44.72;;;24.73;;
42030;SDS011;27709;52.036;5.906;2022-12-15T15:58:00;46.03;;;26.67;;
42030;SDS011;27709;52.036;5.906;2022-12-15T16:44:23;46.10;;;26.45;;
42030;SDS011;27709;52.036;5.906;2022-12-15T16:46:51;42.90;;;25.77;;
42030;SDS011;27709;52.036;5.906;2022-12-15T16:49:17;43.22;;;25.25;;
42030;SDS011;27709;52.036;5.906;2022-12-15T16:51:45;43.95;;;25.27;;
42030;SDS011;27709;52.036;5.906;2022-12-15T16:54:15;46.63;;;26.83;;
42030;SDS011;27709;52.036;5.906;2022-12-15T16:56:44;49.53;;;28.67;;
42030;SDS011;27709;52.036;5.906;2022-12-15T16:59:14;43.65;;;25.92;;
42030;SDS011;27709;52.036;5.906;2022-12-15T17:01:41;45.58;;;26.17;;
42030;SDS011;27709;52.036;5.906;2022-12-15T17:04:07;46.85;;;26.25;;
42030;SDS011;27709;52.036;5.906;2022-12-15T17:06:34;44.72;;;25.50;;
42030;SDS011;27709;52.036;5.906;2022-12-15T17:16:54;46.30;;;26.33;;
42030;SDS011;27709;52.036;5.906;2022-12-15T17:19:19;48.50;;;26.13;;
42030;SDS011;27709;52.036;5.906;2022-12-15T17:21:49;47.40;;;27.15;;
42030;SDS011;27709;52.036;5.906;2022-12-15T17:26:53;45.25;;;26.83;;
42030;SDS011;27709;52.036;5.906;2022-12-15T17:34:31;44.55;;;26.08;;
42030;SDS011;27709;52.036;5.906;2022-12-15T17:37:00;48.10;;;27.63;;
42030;SDS011;27709;52.036;5.906;2022-12-15T17:39:28;48.75;;;27.33;;
42030;SDS011;27709;52.036;5.906;2022-12-15T17:41:56;46.90;;;27.35;;
42030;SDS011;27709;52.036;5.906;2022-12-15T17:44:25;47.40;;;28.50;;
42030;SDS011;27709;52.036;5.906;2022-12-15T17:46:52;49.88;;;27.35;;
42030;SDS011;27709;52.036;5.906;2022-12-15T17:49:20;47.10;;;27.08;;
42030;SDS011;27709;52.036;5.906;2022-12-15T17:51:46;48.13;;;27.88;;
42030;SDS011;27709;52.036;5.906;2022-12-15T17:54:13;49.83;;;26.92;;
42030;SDS011;27709;52.036;5.906;2022-12-15T17:56:41;50.25;;;28.95;;
42030;SDS011;27709;52.036;5.906;2022-12-15T17:59:12;52.45;;;28.10;;
42030;SDS011;27709;52.036;5.906;2022-12-15T18:01:39;52.50;;;28.75;;
42030;SDS011;27709;52.036;5.906;2022-12-15T18:04:06;48.20;;;27.75;;
42030;SDS011;27709;52.036;5.906;2022-12-15T18:06:35;52.08;;;28.98;;
42030;SDS011;27709;52.036;5.906;2022-12-15T18:09:02;47.20;;;27.63;;
42030;SDS011;27709;52.036;5.906;2022-12-15T18:11:31;53.78;;;30.50;;
42030;SDS011;27709;52.036;5.906;2022-12-15T18:13:57;58.95;;;31.70;;
42030;SDS011;27709;52.036;5.906;2022-12-15T18:16:22;53.60;;;29.75;;
42030;SDS011;27709;52.036;5.906;2022-12-15T18:18:48;58.58;;;32.50;;
42030;SDS011;27709;52.036;5.906;2022-12-15T18:21:15;61.17;;;34.60;;
42030;SDS011;27709;52.036;5.906;2022-12-15T18:23:41;51.95;;;29.13;;
42030;SDS011;27709;52.036;5.906;2022-12-15T18:26:12;52.00;;;28.95;;
42030;SDS011;27709;52.036;5.906;2022-12-15T18:28:38;52.53;;;29.40;;
42030;SDS011;27709;52.036;5.906;2022-12-15T18:31:16;55.08;;;29.65;;
42030;SDS011;27709;52.036;5.906;2022-12-15T18:33:46;49.42;;;28.20;;
42030;SDS011;27709;52.036;5.906;2022-12-15T18:36:12;56.05;;;30.42;;
42030;SDS011;27709;52.036;5.906;2022-12-15T18:38:37;52.78;;;29.30;;
42030;SDS011;27709;52.036;5.906;2022-12-15T18:41:03;53.25;;;29.20;;
42030;SDS011;27709;52.036;5.906;2022-12-15T18:43:30;53.63;;;29.70;;
42030;SDS011;27709;52.036;5.906;2022-12-15T18:46:00;51.75;;;30.38;;